Flight Track Log - Related Links

Times and Time Zones

All times are in EDT time to prevent confusion due to time zone crossing. See the ASQ6151 flight status page for this flight to view local times or setup timezone preferences in your user account.

Time Position Orientation Groundspeed Altitude Reporting Facility
EDT Latitude Longitude Course Direction KTS MPH feet Rate Location/Type
Tue 05:41:19 AM 39.1833 -76.7333 218° Southwest 182 209 2,000  Level Potomac TRACON
Tue 05:42:20 AM 39.1833 -76.8167 270° West 230 265 4,300 2,566 Climbing Potomac TRACON
Tue 05:43:00 AM 39.2000 -77.0343 270° West  Level FlightAware Approximate
Tue 05:44:00 AM 39.1936 -77.1564 218° Southwest  Level FlightAware Approximate
Tue 05:44:05 AM 39.1994 -76.9550 279° West 237 273 9,100  Level Washington Center
Tue 05:45:00 AM 39.1107 -77.2232 211° Southwest  Level FlightAware Approximate
Tue 05:45:06 AM 39.1653 -77.0453 244° Southwest 242 278 10,600  Level Washington Center
Tue 05:46:00 AM 39.0275 -77.2892 218° Southwest  Level FlightAware Approximate
Tue 05:46:05 AM 39.1283 -77.1514 246° West 291 335 11,900  Level Washington Center
Tue 05:47:06 AM 39.0894 -77.2656 246° West 330 380 13,700 1,721 Climbing Washington Center
Tue 05:48:07 AM 39.0481 -77.3822 245° Southwest 347 399 15,400 1,672 Climbing Washington Center
Tue 05:49:08 AM 39.0089 -77.4964 246° West 353 406 17,100 1,537 Climbing Washington Center
Tue 05:50:08 AM 38.9653 -77.6153 245° Southwest 358 412 18,500 1,373 Climbing Washington Center
Tue 05:51:06 AM 38.9442 -77.7400 258° West 358 412 19,800 1,271 Climbing Washington Center
Tue 05:52:06 AM 38.9464 -77.8578 271° West 364 419 21,000 1,180 Climbing Washington Center
Tue 05:53:08 AM 38.9519 -77.9914 273° West 375 432 22,200 1,250 Climbing Washington Center
Tue 05:54:06 AM 38.9575 -78.1250 273° West 375 432 23,500 1,271 Climbing Washington Center
Tue 05:55:06 AM 38.9611 -78.2586 272° West 380 437 24,700 1,250 Climbing Washington Center
Tue 05:56:06 AM 38.9661 -78.3950 273° West 380 437 26,000 1,300 Climbing Washington Center
Tue 05:57:06 AM 38.9692 -78.5286 272° West 385 443 27,300 1,361 Climbing Washington Center
Tue 05:58:05 AM 38.9722 -78.6594 272° West 380 437 28,700 1,450 Climbing Washington Center
Tue 05:59:06 AM 38.9772 -78.7906 273° West 380 437 30,200 1,475 Climbing Washington Center
Tue 06:00:07 AM 38.9800 -78.9161 272° West 369 425 31,700 1,426 Climbing Washington Center
Tue 06:01:08 AM 38.9828 -79.0444 272° West 364 419 33,100 1,361 Climbing Washington Center
Tue 06:02:06 AM 38.9875 -79.1675 273° West 359 413 34,400 1,160 Climbing Washington Center
Tue 06:03:07 AM 38.9900 -79.2933 272° West 353 406 35,400 787 Climbing Washington Center
Tue 06:04:08 AM 38.9922 -79.4161 271° West 348 400 36,000 305 Climbing Washington Center
Tue 06:05:05 AM 38.9964 -79.5447 272° West 353 406 36,000  Level Washington Center
Tue 06:06:06 AM 39.0014 -79.7053 272° West 392 451 36,000  Level Washington Center
Tue 06:07:07 AM 39.0025 -79.8522 271° West 406 467 36,000  Level Washington Center
Tue 06:07:56 AM 39.0022 -79.9617 270° West 418 481 36,000  Level Indianapolis Center
Tue 06:08:56 AM 39.0047 -80.1028 271° West 423 487 36,000  Level Indianapolis Center
Tue 06:09:57 AM 39.0072 -80.2536 271° West 422 486 36,000  Level Indianapolis Center
Tue 06:10:58 AM 39.0131 -80.4036 273° West 421 484 36,000  Level Indianapolis Center
Tue 06:11:58 AM 39.0661 -80.5364 297° West 419 482 36,000  Level Indianapolis Center
Tue 06:12:59 AM 39.1233 -80.6653 300° West 416 479 36,000  Level Indianapolis Center
Tue 06:14:00 AM 39.1933 -80.8217 300° West 420 483 36,000  Level Indianapolis Center
Tue 06:15:00 AM 39.2506 -80.9531 299° West 422 486 36,000  Level Indianapolis Center
Tue 06:16:01 AM 39.3086 -81.0839 300° West 422 486 36,000  Level Indianapolis Center
Tue 06:17:02 AM 39.3644 -81.2164 299° West 423 487 36,000  Level Indianapolis Center
Tue 06:18:02 AM 39.4217 -81.3478 299° West 422 486 36,000  Level Indianapolis Center
Tue 06:19:03 AM 39.4789 -81.4789 300° West 420 483 36,000  Level Indianapolis Center
Tue 06:20:03 AM 39.5350 -81.6106 299° West 421 484 36,000  Level Indianapolis Center
Tue 06:21:04 AM 39.5928 -81.7444 299° West 427 491 36,000  Level Indianapolis Center
Tue 06:22:05 AM 39.6483 -81.8781 298° West 424 488 36,000  Level Indianapolis Center
Tue 06:23:05 AM 39.7061 -82.0128 299° West 427 491 36,000  Level Indianapolis Center
Tue 06:24:06 AM 39.7633 -82.1494 299° West 426 490 36,000  Level Indianapolis Center
Tue 06:25:07 AM 39.8214 -82.2867 299° West 429 494 36,000  Level Indianapolis Center
Tue 06:26:07 AM 39.8786 -82.4233 299° West 429 494 36,000  Level Indianapolis Center
Tue 06:27:08 AM 39.9364 -82.5611 299° West 431 496 36,000  Level Indianapolis Center
Tue 06:28:09 AM 39.9931 -82.6983 298° West 429 494 36,000  Level Indianapolis Center
Tue 06:29:09 AM 40.0508 -82.8381 298° West 434 499 36,000  Level Indianapolis Center
Tue 06:30:10 AM 40.1064 -82.9742 298° West 426 490 36,000  Level Indianapolis Center
Tue 06:31:11 AM 40.1636 -83.1128 298° West 433 498 36,000  Level Indianapolis Center
Tue 06:32:11 AM 40.2206 -83.2547 298° West 439 505 36,000  Level Indianapolis Center
Tue 06:33:12 AM 40.2767 -83.3939 298° West 433 498 36,000 -49 Level Indianapolis Center
Tue 06:34:13 AM 40.3433 -83.5575 298° West 436 502 35,900  Descending Indianapolis Center
Tue 06:35:13 AM 40.3986 -83.6956 298° West 429 494 36,000  Climbing Indianapolis Center
Tue 06:36:14 AM 40.4536 -83.8331 298° West 424 488 35,900 -393 Descending Indianapolis Center
Tue 06:37:15 AM 40.5075 -83.9703 297° West 422 486 35,200 -787 Descending Indianapolis Center
Tue 06:38:16 AM 40.5614 -84.1072 297° West 419 482 34,300 -595 Descending Indianapolis Center
Tue 06:39:16 AM 40.6161 -84.2458 298° West 422 486 34,000 -149 Descending Indianapolis Center
Tue 06:40:17 AM 40.6711 -84.3881 297° West 431 496 34,000  Level Indianapolis Center
Tue 06:41:18 AM 40.7264 -84.5303 297° West 434 499 34,000  Level Indianapolis Center
Tue 06:42:19 AM 40.7858 -84.6714 299° West 436 502 34,000  Level Indianapolis Center
Tue 06:43:19 AM 40.8442 -84.8114 299° West 431 496 34,000  Level Indianapolis Center
Tue 06:44:18 AM 40.9006 -84.9456 299° West 427 491 34,000  Level Chicago Center
Tue 06:45:18 AM 40.9564 -85.0839 298° West 426 490 34,000 -298 Level Chicago Center
Tue 06:46:19 AM 41.0125 -85.2211 298° West 423 487 33,400 -1,377 Descending Chicago Center
Tue 06:47:20 AM 41.0703 -85.3606 299° West 429 494 31,200 -2,115 Descending Chicago Center
Tue 06:48:21 AM 41.1275 -85.5042 298° West 435 501 29,100 -2,132 Descending Chicago Center
Tue 06:49:21 AM 41.1861 -85.6494 298° West 441 507 26,900 -1,983 Descending Chicago Center
Tue 06:50:22 AM 41.2453 -85.7994 298° West 452 520 25,100 -934 Descending Chicago Center
Tue 06:51:23 AM 41.2858 -85.9467 290° West 425 489 25,000 -496 Descending Chicago Center
Tue 06:52:23 AM 41.3128 -86.0822 285° West 379 436 24,100 -942 Descending Chicago Center
Tue 06:53:24 AM 41.3356 -86.2056 284° West 344 396 23,100 -984 Descending Chicago Center
Tue 06:54:25 AM 41.3583 -86.3217 285° West 325 374 22,100 -787 Descending Chicago Center
Tue 06:55:26 AM 41.3814 -86.4397 285° West 329 379 21,500 -843 Descending Chicago Center
Tue 06:56:26 AM 41.4019 -86.5575 283° West 329 379 20,400 -1,091 Descending Chicago Center
Tue 06:57:27 AM 41.4017 -86.6758 270° West 320 368 19,300 -1,180 Descending Chicago Center
Tue 06:58:28 AM 41.4022 -86.8050 270° West 316 364 18,000 -1,091 Descending Chicago Center
Tue 06:59:28 AM 41.4036 -86.9183 271° West 310 357 17,100 -645 Descending Chicago Center
Tue 07:00:29 AM 41.4039 -87.0308 270° West 305 351 16,700 -934 Descending Chicago Center
Tue 07:01:30 AM 41.4072 -87.1419 272° West 303 349 15,200 -1,672 Descending Chicago Center
Tue 07:02:31 AM 41.4158 -87.2494 276° West 295 339 13,300 -1,721 Descending Chicago Center
Tue 07:03:32 AM 41.4717 -87.3233 315° West 286 329 11,700 -1,438 Descending Chicago Center
Tue 07:04:32 AM 41.5311 -87.3917 319° Northwest 285 328 10,400 -1,388 Descending Chicago Center
Tue 07:05:33 AM 41.6033 -87.4233 342° North 283 326 8,900 -1,180 Descending Chicago Center
Tue 07:06:34 AM 41.6767 -87.4406 350° North 273 314 8,000 -836 Descending Chicago Center
Tue 07:07:35 AM 41.7664 -87.4556 353° North 273 314 7,200 -590 Descending Chicago Center
Tue 07:08:36 AM 41.8442 -87.4544 North 280 322 6,800 -689 Descending Chicago Center
Tue 07:09:37 AM 41.9208 -87.4536 360° North 279 321 5,800 -885 Descending Chicago Center
Tue 07:10:38 AM 41.9742 -87.5011 326° Northwest 263 303 5,000 -344 Descending Chicago Center
Tue 07:11:39 AM 41.9686 -87.5833 265° West 226 260 5,100 -295 Climbing Chicago Center
Tue 07:12:40 AM 41.9686 -87.6572 270° West 208 239 4,400 -689 Descending Chicago Center

Login

Don't have an account? Register now (free) for customized features, flight alerts, and more!